sensor_id;sensor_type;location;lat;lon;timestamp;pressure;altitude;pressure_sealevel;temperature;humidity
31062;BME280;17724;53.546;9.974;2022-09-09T00:00:46;100815.78;;;16.73;100.00
31062;BME280;17724;53.546;9.974;2022-09-09T00:04:59;100818.66;;;16.63;100.00
31062;BME280;17724;53.546;9.974;2022-09-09T00:09:08;100819.50;;;16.39;100.00
31062;BME280;17724;53.546;9.974;2022-09-09T00:13:22;100811.34;;;16.29;100.00
31062;BME280;17724;53.546;9.974;2022-09-09T00:21:53;100822.94;;;16.07;100.00
31062;BME280;17724;53.546;9.974;2022-09-09T00:26:18;100826.53;;;16.32;100.00
31062;BME280;17724;53.546;9.974;2022-09-09T00:30:29;100824.66;;;16.27;100.00
31062;BME280;17724;53.546;9.974;2022-09-09T00:34:32;100820.97;;;16.13;100.00
31062;BME280;17724;53.546;9.974;2022-09-09T00:38:35;100831.09;;;15.98;100.00
31062;BME280;17724;53.546;9.974;2022-09-09T00:42:42;100826.28;;;16.09;100.00
31062;BME280;17724;53.546;9.974;2022-09-09T00:46:56;100818.72;;;16.15;100.00
31062;BME280;17724;53.546;9.974;2022-09-09T00:51:08;100819.00;;;16.13;100.00
31062;BME280;17724;53.546;9.974;2022-09-09T00:55:17;100813.94;;;15.96;100.00
31062;BME280;17724;53.546;9.974;2022-09-09T01:03:37;100824.22;;;15.96;100.00
31062;BME280;17724;53.546;9.974;2022-09-09T01:07:38;100827.44;;;16.03;100.00
31062;BME280;17724;53.546;9.974;2022-09-09T01:16:03;100815.56;;;15.73;100.00
31062;BME280;17724;53.546;9.974;2022-09-09T01:20:10;100827.28;;;15.65;100.00
31062;BME280;17724;53.546;9.974;2022-09-09T01:24:26;100828.03;;;15.76;100.00
31062;BME280;17724;53.546;9.974;2022-09-09T01:28:28;100827.53;;;15.69;100.00
31062;BME280;17724;53.546;9.974;2022-09-09T01:40:56;100814.25;;;15.61;100.00
31062;BME280;17724;53.546;9.974;2022-09-09T01:44:58;100807.94;;;15.55;100.00
31062;BME280;17724;53.546;9.974;2022-09-09T01:49:00;100817.50;;;15.39;100.00
31062;BME280;17724;53.546;9.974;2022-09-09T01:53:02;100814.72;;;15.39;100.00
31062;BME280;17724;53.546;9.974;2022-09-09T01:57:23;100806.38;;;15.44;100.00
31062;BME280;17724;53.546;9.974;2022-09-09T02:05:49;100806.84;;;15.51;100.00
31062;BME280;17724;53.546;9.974;2022-09-09T02:10:00;100821.34;;;15.43;100.00
31062;BME280;17724;53.546;9.974;2022-09-09T02:14:31;100811.13;;;15.72;100.00
31062;BME280;17724;53.546;9.974;2022-09-09T02:18:41;100806.53;;;15.87;100.00
31062;BME280;17724;53.546;9.974;2022-09-09T02:22:48;100811.31;;;15.81;100.00
31062;BME280;17724;53.546;9.974;2022-09-09T02:26:52;100816.19;;;15.65;100.00
31062;BME280;17724;53.546;9.974;2022-09-09T02:30:55;100807.66;;;15.57;100.00
31062;BME280;17724;53.546;9.974;2022-09-09T02:34:59;100806.19;;;15.64;100.00
31062;BME280;17724;53.546;9.974;2022-09-09T02:39:01;100803.56;;;15.49;100.00
31062;BME280;17724;53.546;9.974;2022-09-09T02:43:02;100801.91;;;15.48;100.00
31062;BME280;17724;53.546;9.974;2022-09-09T02:55:38;100818.75;;;15.51;100.00
31062;BME280;17724;53.546;9.974;2022-09-09T02:59:40;100814.28;;;15.56;100.00
31062;BME280;17724;53.546;9.974;2022-09-09T03:03:41;100799.66;;;15.50;100.00
31062;BME280;17724;53.546;9.974;2022-09-09T03:07:49;100820.31;;;15.34;100.00
31062;BME280;17724;53.546;9.974;2022-09-09T03:11:50;100814.72;;;15.39;100.00
31062;BME280;17724;53.546;9.974;2022-09-09T03:15:51;100814.22;;;15.32;100.00
31062;BME280;17724;53.546;9.974;2022-09-09T03:19:51;100818.91;;;15.36;100.00
31062;BME280;17724;53.546;9.974;2022-09-09T03:23:54;100811.31;;;15.47;100.00
31062;BME280;17724;53.546;9.974;2022-09-09T03:27:55;100816.69;;;15.38;100.00
31062;BME280;17724;53.546;9.974;2022-09-09T03:31:56;100819.50;;;15.33;100.00
31062;BME280;17724;53.546;9.974;2022-09-09T03:35:57;100803.28;;;15.16;100.00
31062;BME280;17724;53.546;9.974;2022-09-09T03:39:57;100814.13;;;15.13;100.00
31062;BME280;17724;53.546;9.974;2022-09-09T03:44:00;100819.22;;;14.95;100.00
31062;BME280;17724;53.546;9.974;2022-09-09T03:48:00;100821.97;;;14.95;100.00
31062;BME280;17724;53.546;9.974;2022-09-09T03:52:01;100823.91;;;14.95;100.00
31062;BME280;17724;53.546;9.974;2022-09-09T03:56:02;100822.91;;;14.81;100.00
31062;BME280;17724;53.546;9.974;2022-09-09T04:00:05;100830.97;;;14.72;100.00
31062;BME280;17724;53.546;9.974;2022-09-09T04:04:07;100830.81;;;15.02;100.00
31062;BME280;17724;53.546;9.974;2022-09-09T04:08:07;100830.22;;;15.06;100.00
31062;BME280;17724;53.546;9.974;2022-09-09T04:12:08;100834.13;;;15.05;100.00
31062;BME280;17724;53.546;9.974;2022-09-09T04:16:10;100838.41;;;14.82;100.00
31062;BME280;17724;53.546;9.974;2022-09-09T04:20:11;100836.38;;;14.97;100.00
31062;BME280;17724;53.546;9.974;2022-09-09T04:24:12;100838.38;;;14.87;100.00
31062;BME280;17724;53.546;9.974;2022-09-09T04:28:13;100846.72;;;14.82;100.00
31062;BME280;17724;53.546;9.974;2022-09-09T04:32:14;100846.41;;;14.88;100.00
31062;BME280;17724;53.546;9.974;2022-09-09T04:36:15;100839.72;;;14.94;100.00
31062;BME280;17724;53.546;9.974;2022-09-09T04:40:15;100846.28;;;15.03;100.00
31062;BME280;17724;53.546;9.974;2022-09-09T04:44:16;100848.13;;;15.18;100.00
31062;BME280;17724;53.546;9.974;2022-09-09T04:48:17;100853.94;;;15.22;100.00
31062;BME280;17724;53.546;9.974;2022-09-09T04:52:17;100843.34;;;15.29;100.00
31062;BME280;17724;53.546;9.974;2022-09-09T04:56:19;100844.47;;;15.28;100.00
31062;BME280;17724;53.546;9.974;2022-09-09T05:00:20;100862.19;;;15.32;100.00
31062;BME280;17724;53.546;9.974;2022-09-09T05:04:21;100858.84;;;15.30;100.00
31062;BME280;17724;53.546;9.974;2022-09-09T05:08:21;100858.25;;;15.38;100.00
31062;BME280;17724;53.546;9.974;2022-09-09T05:12:23;100860.75;;;15.35;100.00
31062;BME280;17724;53.546;9.974;2022-09-09T05:16:25;100856.66;;;15.27;100.00
31062;BME280;17724;53.546;9.974;2022-09-09T05:20:26;100856.53;;;15.08;100.00
31062;BME280;17724;53.546;9.974;2022-09-09T05:24:27;100857.53;;;15.22;100.00
31062;BME280;17724;53.546;9.974;2022-09-09T05:28:28;100865.69;;;15.43;100.00
31062;BME280;17724;53.546;9.974;2022-09-09T05:32:29;100870.41;;;15.42;100.00
31062;BME280;17724;53.546;9.974;2022-09-09T05:36:33;100854.59;;;15.43;100.00
31062;BME280;17724;53.546;9.974;2022-09-09T05:40:33;100875.25;;;15.61;100.00
31062;BME280;17724;53.546;9.974;2022-09-09T05:44:33;100882.19;;;15.58;100.00
31062;BME280;17724;53.546;9.974;2022-09-09T05:48:42;100881.16;;;15.49;100.00
31062;BME280;17724;53.546;9.974;2022-09-09T05:52:43;100886.31;;;15.66;100.00
31062;BME280;17724;53.546;9.974;2022-09-09T05:56:44;100888.50;;;15.64;100.00
31062;BME280;17724;53.546;9.974;2022-09-09T06:00:45;100884.38;;;15.66;100.00
31062;BME280;17724;53.546;9.974;2022-09-09T06:04:45;100892.06;;;15.74;100.00
31062;BME280;17724;53.546;9.974;2022-09-09T06:08:46;100902.13;;;15.65;100.00
31062;BME280;17724;53.546;9.974;2022-09-09T06:12:47;100908.63;;;15.45;100.00
31062;BME280;17724;53.546;9.974;2022-09-09T06:16:47;100911.28;;;15.66;100.00
31062;BME280;17724;53.546;9.974;2022-09-09T06:20:55;100920.50;;;15.90;100.00
31062;BME280;17724;53.546;9.974;2022-09-09T06:24:56;100914.50;;;16.07;100.00
31062;BME280;17724;53.546;9.974;2022-09-09T06:28:58;100913.34;;;15.84;100.00
31062;BME280;17724;53.546;9.974;2022-09-09T06:32:58;100916.69;;;16.10;100.00
31062;BME280;17724;53.546;9.974;2022-09-09T06:36:59;100915.06;;;15.75;100.00
31062;BME280;17724;53.546;9.974;2022-09-09T06:41:00;100915.44;;;15.97;100.00
31062;BME280;17724;53.546;9.974;2022-09-09T06:45:02;100913.00;;;15.91;100.00
31062;BME280;17724;53.546;9.974;2022-09-09T06:49:02;100905.34;;;15.77;100.00
31062;BME280;17724;53.546;9.974;2022-09-09T06:53:03;100911.53;;;15.98;100.00
31062;BME280;17724;53.546;9.974;2022-09-09T06:57:03;100900.59;;;16.12;100.00
31062;BME280;17724;53.546;9.974;2022-09-09T07:01:05;100910.81;;;16.17;100.00
31062;BME280;17724;53.546;9.974;2022-09-09T07:05:06;100910.00;;;16.40;100.00
31062;BME280;17724;53.546;9.974;2022-09-09T07:09:09;100914.31;;;16.51;100.00
31062;BME280;17724;53.546;9.974;2022-09-09T07:13:10;100918.03;;;16.66;100.00
31062;BME280;17724;53.546;9.974;2022-09-09T07:17:10;100917.94;;;16.76;100.00
31062;BME280;17724;53.546;9.974;2022-09-09T07:21:12;100917.97;;;16.71;100.00
31062;BME280;17724;53.546;9.974;2022-09-09T07:25:13;100919.69;;;16.91;100.00
31062;BME280;17724;53.546;9.974;2022-09-09T07:29:15;100921.13;;;16.64;100.00
31062;BME280;17724;53.546;9.974;2022-09-09T07:33:18;100918.75;;;16.53;100.00
31062;BME280;17724;53.546;9.974;2022-09-09T07:37:20;100916.97;;;16.86;100.00
31062;BME280;17724;53.546;9.974;2022-09-09T07:41:26;100914.50;;;17.03;100.00
31062;BME280;17724;53.546;9.974;2022-09-09T07:45:27;100928.25;;;16.94;100.00
31062;BME280;17724;53.546;9.974;2022-09-09T07:49:28;100928.19;;;16.75;100.00
31062;BME280;17724;53.546;9.974;2022-09-09T07:53:28;100936.38;;;17.10;100.00
31062;BME280;17724;53.546;9.974;2022-09-09T07:57:31;100932.03;;;17.04;100.00
31062;BME280;17724;53.546;9.974;2022-09-09T08:01:36;100941.19;;;17.04;100.00
31062;BME280;17724;53.546;9.974;2022-09-09T08:05:39;100943.34;;;17.07;100.00
31062;BME280;17724;53.546;9.974;2022-09-09T08:09:39;100941.13;;;17.28;100.00
31062;BME280;17724;53.546;9.974;2022-09-09T08:13:41;100942.84;;;17.43;100.00
31062;BME280;17724;53.546;9.974;2022-09-09T08:17:42;100946.44;;;17.62;100.00
31062;BME280;17724;53.546;9.974;2022-09-09T08:21:44;100947.72;;;17.70;100.00
31062;BME280;17724;53.546;9.974;2022-09-09T08:25:44;100955.94;;;17.80;100.00
31062;BME280;17724;53.546;9.974;2022-09-09T08:29:45;100969.75;;;17.85;100.00
31062;BME280;17724;53.546;9.974;2022-09-09T08:33:46;100959.91;;;17.93;100.00
31062;BME280;17724;53.546;9.974;2022-09-09T08:37:47;100961.28;;;18.09;100.00
31062;BME280;17724;53.546;9.974;2022-09-09T08:46:09;100961.13;;;18.33;100.00
31062;BME280;17724;53.546;9.974;2022-09-09T08:50:28;100962.91;;;18.43;99.23
31062;BME280;17724;53.546;9.974;2022-09-09T08:54:33;100965.06;;;18.32;97.92
31062;BME280;17724;53.546;9.974;2022-09-09T08:58:41;100967.66;;;18.42;98.04
31062;BME280;17724;53.546;9.974;2022-09-09T09:03:23;100967.19;;;18.82;99.15
31062;BME280;17724;53.546;9.974;2022-09-09T09:07:41;100964.19;;;18.78;96.56
31062;BME280;17724;53.546;9.974;2022-09-09T09:11:50;100969.97;;;18.82;96.88
31062;BME280;17724;53.546;9.974;2022-09-09T09:16:02;100970.88;;;18.91;95.15
31062;BME280;17724;53.546;9.974;2022-09-09T09:20:12;100975.63;;;19.32;94.80
31062;BME280;17724;53.546;9.974;2022-09-09T09:24:20;100979.16;;;19.24;90.99
31062;BME280;17724;53.546;9.974;2022-09-09T09:28:27;100967.59;;;19.16;92.19
31062;BME280;17724;53.546;9.974;2022-09-09T09:32:32;100973.91;;;19.08;91.12
31062;BME280;17724;53.546;9.974;2022-09-09T09:36:45;100970.00;;;18.95;90.37
31062;BME280;17724;53.546;9.974;2022-09-09T09:40:58;100972.78;;;18.95;90.42
31062;BME280;17724;53.546;9.974;2022-09-09T09:45:32;100970.50;;;18.98;90.11
31062;BME280;17724;53.546;9.974;2022-09-09T09:49:33;100971.31;;;18.98;90.57
31062;BME280;17724;53.546;9.974;2022-09-09T09:53:36;100980.78;;;19.25;90.57
31062;BME280;17724;53.546;9.974;2022-09-09T09:57:38;100977.50;;;19.95;88.26
31062;BME280;17724;53.546;9.974;2022-09-09T10:01:39;100982.53;;;20.07;84.66
31062;BME280;17724;53.546;9.974;2022-09-09T10:05:45;100980.22;;;20.09;85.55
31062;BME280;17724;53.546;9.974;2022-09-09T10:09:50;100968.22;;;20.08;84.75
31062;BME280;17724;53.546;9.974;2022-09-09T10:14:21;100970.72;;;20.41;85.20
31062;BME280;17724;53.546;9.974;2022-09-09T10:18:35;100961.84;;;20.39;83.90
31062;BME280;17724;53.546;9.974;2022-09-09T10:22:39;100967.13;;;20.72;83.87
31062;BME280;17724;53.546;9.974;2022-09-09T10:36:02;100969.59;;;20.73;82.14
31062;BME280;17724;53.546;9.974;2022-09-09T10:49:20;100954.84;;;20.50;80.38
31062;BME280;17724;53.546;9.974;2022-09-09T10:57:46;100960.50;;;20.59;79.33
31062;BME280;17724;53.546;9.974;2022-09-09T11:02:00;100947.19;;;20.64;77.95
31062;BME280;17724;53.546;9.974;2022-09-09T11:06:09;100943.56;;;20.55;77.74
31062;BME280;17724;53.546;9.974;2022-09-09T11:10:25;100957.53;;;20.55;76.73
31062;BME280;17724;53.546;9.974;2022-09-09T11:14:39;100940.34;;;20.79;77.81
31062;BME280;17724;53.546;9.974;2022-09-09T11:18:42;100934.44;;;20.81;77.36
31062;BME280;17724;53.546;9.974;2022-09-09T11:22:59;100931.03;;;21.10;76.39
31062;BME280;17724;53.546;9.974;2022-09-09T11:27:10;100948.03;;;21.31;76.28
31062;BME280;17724;53.546;9.974;2022-09-09T11:35:46;100944.53;;;21.16;74.52
31062;BME280;17724;53.546;9.974;2022-09-09T11:40:08;100943.22;;;21.14;75.24
31062;BME280;17724;53.546;9.974;2022-09-09T11:44:19;100957.75;;;21.33;75.71
31062;BME280;17724;53.546;9.974;2022-09-09T11:48:36;100952.44;;;21.14;76.96
31062;BME280;17724;53.546;9.974;2022-09-09T11:52:40;100952.09;;;20.99;79.51
31062;BME280;17724;53.546;9.974;2022-09-09T11:56:46;100962.38;;;20.81;80.82
31062;BME280;17724;53.546;9.974;2022-09-09T12:00:48;100959.81;;;20.62;80.74
31062;BME280;17724;53.546;9.974;2022-09-09T12:05:03;100959.19;;;20.65;82.05
31062;BME280;17724;53.546;9.974;2022-09-09T12:13:19;100947.38;;;20.37;80.65
31062;BME280;17724;53.546;9.974;2022-09-09T12:17:22;100949.22;;;19.88;87.80
31062;BME280;17724;53.546;9.974;2022-09-09T12:25:45;100939.22;;;18.59;99.29
31062;BME280;17724;53.546;9.974;2022-09-09T12:30:09;100952.72;;;18.06;100.00
31062;BME280;17724;53.546;9.974;2022-09-09T12:34:16;100950.31;;;17.99;100.00
31062;BME280;17724;53.546;9.974;2022-09-09T12:38:39;100947.16;;;18.06;100.00
31062;BME280;17724;53.546;9.974;2022-09-09T12:42:40;100941.25;;;17.93;100.00
31062;BME280;17724;53.546;9.974;2022-09-09T12:46:43;100940.38;;;17.79;100.00
31062;BME280;17724;53.546;9.974;2022-09-09T12:50:49;100934.34;;;17.72;100.00
31062;BME280;17724;53.546;9.974;2022-09-09T12:54:50;100947.50;;;17.66;100.00
31062;BME280;17724;53.546;9.974;2022-09-09T12:58:55;100941.47;;;17.59;100.00
31062;BME280;17724;53.546;9.974;2022-09-09T13:02:57;100955.38;;;17.59;100.00
31062;BME280;17724;53.546;9.974;2022-09-09T13:07:06;100964.06;;;17.77;100.00
31062;BME280;17724;53.546;9.974;2022-09-09T13:11:12;100956.38;;;17.87;100.00
31062;BME280;17724;53.546;9.974;2022-09-09T13:15:26;100963.72;;;17.97;100.00
31062;BME280;17724;53.546;9.974;2022-09-09T13:19:32;100961.59;;;18.08;100.00
31062;BME280;17724;53.546;9.974;2022-09-09T13:23:36;100969.66;;;18.23;100.00
31062;BME280;17724;53.546;9.974;2022-09-09T13:27:41;100983.66;;;18.04;100.00
31062;BME280;17724;53.546;9.974;2022-09-09T13:31:43;100991.94;;;17.71;100.00
31062;BME280;17724;53.546;9.974;2022-09-09T13:35:47;100991.13;;;17.52;100.00
31062;BME280;17724;53.546;9.974;2022-09-09T13:39:52;100993.75;;;17.43;100.00
31062;BME280;17724;53.546;9.974;2022-09-09T13:43:53;101008.25;;;17.40;100.00
31062;BME280;17724;53.546;9.974;2022-09-09T13:47:55;101002.00;;;17.48;100.00
31062;BME280;17724;53.546;9.974;2022-09-09T13:52:10;101005.69;;;17.44;100.00
31062;BME280;17724;53.546;9.974;2022-09-09T13:56:11;101004.25;;;17.46;100.00
31062;BME280;17724;53.546;9.974;2022-09-09T14:00:12;100998.91;;;17.69;100.00
31062;BME280;17724;53.546;9.974;2022-09-09T14:04:13;100992.84;;;17.48;100.00
31062;BME280;17724;53.546;9.974;2022-09-09T14:08:25;100982.81;;;17.47;100.00
31062;BME280;17724;53.546;9.974;2022-09-09T14:12:27;100977.88;;;17.82;100.00
31062;BME280;17724;53.546;9.974;2022-09-09T14:16:27;100978.63;;;17.49;100.00
31062;BME280;17724;53.546;9.974;2022-09-09T14:20:27;100979.06;;;17.38;100.00
31062;BME280;17724;53.546;9.974;2022-09-09T14:24:28;100982.69;;;17.38;100.00
31062;BME280;17724;53.546;9.974;2022-09-09T14:28:28;100980.91;;;17.47;100.00
31062;BME280;17724;53.546;9.974;2022-09-09T14:32:29;100973.59;;;17.52;100.00
31062;BME280;17724;53.546;9.974;2022-09-09T14:36:29;100969.22;;;17.27;100.00
31062;BME280;17724;53.546;9.974;2022-09-09T14:40:30;100962.69;;;16.69;100.00
31062;BME280;17724;53.546;9.974;2022-09-09T14:44:31;100964.91;;;16.72;100.00
31062;BME280;17724;53.546;9.974;2022-09-09T14:48:32;100961.88;;;16.45;100.00
31062;BME280;17724;53.546;9.974;2022-09-09T14:52:33;100970.97;;;16.21;100.00
31062;BME280;17724;53.546;9.974;2022-09-09T14:56:35;100984.69;;;16.66;100.00
31062;BME280;17724;53.546;9.974;2022-09-09T15:00:36;100981.84;;;16.71;100.00
31062;BME280;17724;53.546;9.974;2022-09-09T15:04:36;100986.94;;;16.64;100.00
31062;BME280;17724;53.546;9.974;2022-09-09T15:08:38;100981.56;;;16.14;100.00
31062;BME280;17724;53.546;9.974;2022-09-09T15:12:38;100992.19;;;16.07;100.00
31062;BME280;17724;53.546;9.974;2022-09-09T15:16:39;100991.66;;;16.05;100.00
31062;BME280;17724;53.546;9.974;2022-09-09T15:20:44;100987.31;;;16.23;100.00
31062;BME280;17724;53.546;9.974;2022-09-09T15:24:46;100987.31;;;16.23;100.00
31062;BME280;17724;53.546;9.974;2022-09-09T15:28:48;100986.28;;;16.43;100.00
31062;BME280;17724;53.546;9.974;2022-09-09T15:32:49;100977.56;;;16.55;100.00
31062;BME280;17724;53.546;9.974;2022-09-09T15:36:50;100975.53;;;16.65;100.00
31062;BME280;17724;53.546;9.974;2022-09-09T15:40:54;100985.44;;;16.77;100.00
31062;BME280;17724;53.546;9.974;2022-09-09T15:44:55;100980.69;;;16.77;100.00
31062;BME280;17724;53.546;9.974;2022-09-09T15:53:10;100979.34;;;17.17;100.00
31062;BME280;17724;53.546;9.974;2022-09-09T15:57:12;100975.69;;;17.22;100.00
31062;BME280;17724;53.546;9.974;2022-09-09T16:01:13;100975.06;;;17.06;100.00
31062;BME280;17724;53.546;9.974;2022-09-09T16:05:14;100972.94;;;16.98;100.00
31062;BME280;17724;53.546;9.974;2022-09-09T16:09:15;100974.41;;;16.90;100.00
31062;BME280;17724;53.546;9.974;2022-09-09T16:13:15;100964.13;;;16.91;100.00
31062;BME280;17724;53.546;9.974;2022-09-09T16:17:15;100966.25;;;16.99;100.00
31062;BME280;17724;53.546;9.974;2022-09-09T16:21:28;100959.19;;;17.07;100.00
31062;BME280;17724;53.546;9.974;2022-09-09T16:25:31;100953.88;;;17.10;100.00
31062;BME280;17724;53.546;9.974;2022-09-09T16:29:32;100956.81;;;17.19;100.00
31062;BME280;17724;53.546;9.974;2022-09-09T16:33:32;100952.91;;;17.58;100.00
31062;BME280;17724;53.546;9.974;2022-09-09T16:37:33;100943.16;;;17.60;100.00
31062;BME280;17724;53.546;9.974;2022-09-09T16:41:34;100948.84;;;17.69;100.00
31062;BME280;17724;53.546;9.974;2022-09-09T16:45:43;100965.72;;;17.78;100.00
31062;BME280;17724;53.546;9.974;2022-09-09T16:49:45;100961.09;;;17.87;100.00
31062;BME280;17724;53.546;9.974;2022-09-09T16:53:46;100965.13;;;17.81;100.00
31062;BME280;17724;53.546;9.974;2022-09-09T16:57:46;100965.78;;;17.72;100.00
31062;BME280;17724;53.546;9.974;2022-09-09T17:01:51;100967.28;;;17.84;100.00
31062;BME280;17724;53.546;9.974;2022-09-09T17:05:51;100967.94;;;17.94;100.00
31062;BME280;17724;53.546;9.974;2022-09-09T17:09:52;100971.97;;;18.02;100.00
31062;BME280;17724;53.546;9.974;2022-09-09T17:13:53;100966.31;;;17.75;100.00
31062;BME280;17724;53.546;9.974;2022-09-09T17:17:55;100964.81;;;17.82;100.00
31062;BME280;17724;53.546;9.974;2022-09-09T17:21:55;100953.66;;;17.82;100.00
31062;BME280;17724;53.546;9.974;2022-09-09T17:25:57;100959.75;;;17.65;100.00
31062;BME280;17724;53.546;9.974;2022-09-09T17:29:58;100966.31;;;17.75;100.00
31062;BME280;17724;53.546;9.974;2022-09-09T17:33:58;100956.22;;;17.79;100.00
31062;BME280;17724;53.546;9.974;2022-09-09T17:37:59;100960.81;;;17.69;100.00
31062;BME280;17724;53.546;9.974;2022-09-09T17:42:00;100976.25;;;17.81;100.00
31062;BME280;17724;53.546;9.974;2022-09-09T17:46:12;100976.00;;;17.77;100.00
31062;BME280;17724;53.546;9.974;2022-09-09T17:50:13;100980.53;;;17.92;100.00
31062;BME280;17724;53.546;9.974;2022-09-09T17:54:18;100985.63;;;18.17;100.00
31062;BME280;17724;53.546;9.974;2022-09-09T17:58:19;100995.69;;;18.32;100.00
31062;BME280;17724;53.546;9.974;2022-09-09T18:02:21;101001.00;;;18.48;100.00
31062;BME280;17724;53.546;9.974;2022-09-09T18:06:24;101004.00;;;18.51;100.00
31062;BME280;17724;53.546;9.974;2022-09-09T18:10:28;101012.63;;;18.50;100.00
31062;BME280;17724;53.546;9.974;2022-09-09T18:14:30;101012.94;;;18.48;100.00
31062;BME280;17724;53.546;9.974;2022-09-09T18:18:30;101015.13;;;18.51;100.00
31062;BME280;17724;53.546;9.974;2022-09-09T18:22:32;101017.72;;;18.61;100.00
31062;BME280;17724;53.546;9.974;2022-09-09T18:26:33;101022.97;;;18.63;100.00
31062;BME280;17724;53.546;9.974;2022-09-09T18:30:38;101019.75;;;18.09;100.00
31062;BME280;17724;53.546;9.974;2022-09-09T18:34:39;101020.75;;;18.00;100.00
31062;BME280;17724;53.546;9.974;2022-09-09T18:38:40;101019.97;;;17.94;100.00
31062;BME280;17724;53.546;9.974;2022-09-09T18:42:41;101021.00;;;18.17;100.00
31062;BME280;17724;53.546;9.974;2022-09-09T18:46:42;101025.75;;;18.16;100.00
31062;BME280;17724;53.546;9.974;2022-09-09T18:50:43;101019.03;;;18.17;100.00
31062;BME280;17724;53.546;9.974;2022-09-09T18:54:44;101025.00;;;18.11;100.00
31062;BME280;17724;53.546;9.974;2022-09-09T18:58:45;101017.78;;;18.10;100.00
31062;BME280;17724;53.546;9.974;2022-09-09T19:02:48;101021.50;;;18.19;100.00
31062;BME280;17724;53.546;9.974;2022-09-09T19:06:51;101025.94;;;17.87;100.00
31062;BME280;17724;53.546;9.974;2022-09-09T19:11:00;101020.66;;;17.86;100.00
31062;BME280;17724;53.546;9.974;2022-09-09T19:15:01;101027.00;;;17.91;100.00
31062;BME280;17724;53.546;9.974;2022-09-09T19:19:05;101023.19;;;17.63;100.00
31062;BME280;17724;53.546;9.974;2022-09-09T19:23:05;101020.13;;;17.65;100.00
31062;BME280;17724;53.546;9.974;2022-09-09T19:27:06;101024.41;;;17.57;100.00
31062;BME280;17724;53.546;9.974;2022-09-09T19:31:08;101021.03;;;17.60;100.00
31062;BME280;17724;53.546;9.974;2022-09-09T19:35:09;101028.81;;;17.39;100.00
31062;BME280;17724;53.546;9.974;2022-09-09T19:39:10;101038.97;;;17.49;100.00
31062;BME280;17724;53.546;9.974;2022-09-09T19:43:10;101035.56;;;17.76;100.00
31062;BME280;17724;53.546;9.974;2022-09-09T19:47:11;101032.00;;;17.52;100.00
31062;BME280;17724;53.546;9.974;2022-09-09T19:51:16;101045.44;;;17.44;100.00
31062;BME280;17724;53.546;9.974;2022-09-09T19:55:16;101035.50;;;17.38;100.00
31062;BME280;17724;53.546;9.974;2022-09-09T19:59:17;101038.66;;;17.32;100.00
31062;BME280;17724;53.546;9.974;2022-09-09T20:03:18;101039.06;;;17.44;100.00
31062;BME280;17724;53.546;9.974;2022-09-09T20:07:18;101038.81;;;17.59;100.00
31062;BME280;17724;53.546;9.974;2022-09-09T20:11:19;101043.00;;;17.38;100.00
31062;BME280;17724;53.546;9.974;2022-09-09T20:15:19;101056.53;;;17.02;100.00
31062;BME280;17724;53.546;9.974;2022-09-09T20:19:20;101053.41;;;17.08;100.00
31062;BME280;17724;53.546;9.974;2022-09-09T20:23:21;101057.53;;;17.11;100.00
31062;BME280;17724;53.546;9.974;2022-09-09T20:27:21;101059.34;;;17.44;100.00
31062;BME280;17724;53.546;9.974;2022-09-09T20:31:27;101057.38;;;17.45;100.00
31062;BME280;17724;53.546;9.974;2022-09-09T20:35:27;101058.63;;;17.34;100.00
31062;BME280;17724;53.546;9.974;2022-09-09T20:39:28;101059.78;;;17.33;100.00
31062;BME280;17724;53.546;9.974;2022-09-09T20:43:29;101056.63;;;17.15;100.00
31062;BME280;17724;53.546;9.974;2022-09-09T20:47:30;101057.06;;;17.28;100.00
31062;BME280;17724;53.546;9.974;2022-09-09T20:51:33;101060.19;;;17.21;100.00
31062;BME280;17724;53.546;9.974;2022-09-09T20:55:34;101064.84;;;17.26;100.00
31062;BME280;17724;53.546;9.974;2022-09-09T20:59:34;101080.81;;;17.39;100.00
31062;BME280;17724;53.546;9.974;2022-09-09T21:03:35;101084.56;;;17.29;100.00
31062;BME280;17724;53.546;9.974;2022-09-09T21:07:36;101090.22;;;17.19;100.00
31062;BME280;17724;53.546;9.974;2022-09-09T21:11:36;101090.59;;;17.12;100.00
31062;BME280;17724;53.546;9.974;2022-09-09T21:15:37;101092.41;;;16.98;100.00
31062;BME280;17724;53.546;9.974;2022-09-09T21:19:37;101099.28;;;17.06;100.00
31062;BME280;17724;53.546;9.974;2022-09-09T21:23:38;101089.16;;;17.15;100.00
31062;BME280;17724;53.546;9.974;2022-09-09T21:27:38;101085.47;;;17.19;100.00
31062;BME280;17724;53.546;9.974;2022-09-09T21:31:38;101084.25;;;17.31;100.00
31062;BME280;17724;53.546;9.974;2022-09-09T21:35:40;101080.72;;;17.25;100.00
31062;BME280;17724;53.546;9.974;2022-09-09T21:39:40;101077.00;;;17.54;100.00
31062;BME280;17724;53.546;9.974;2022-09-09T21:43:43;101079.16;;;17.38;100.00
31062;BME280;17724;53.546;9.974;2022-09-09T21:47:44;101081.88;;;17.19;100.00
31062;BME280;17724;53.546;9.974;2022-09-09T21:51:46;101076.38;;;17.14;100.00
31062;BME280;17724;53.546;9.974;2022-09-09T21:55:47;101073.03;;;17.17;100.00
31062;BME280;17724;53.546;9.974;2022-09-09T21:59:48;101074.59;;;17.23;100.00
31062;BME280;17724;53.546;9.974;2022-09-09T22:03:48;101053.44;;;17.03;100.00
31062;BME280;17724;53.546;9.974;2022-09-09T22:07:48;101065.84;;;17.11;100.00
31062;BME280;17724;53.546;9.974;2022-09-09T22:11:49;101057.41;;;17.21;100.00
31062;BME280;17724;53.546;9.974;2022-09-09T22:15:51;101060.59;;;17.09;100.00